createdAt,value
2017-07-29T05:31:30.235Z,4072
2017-07-29T05:31:55.751Z,3144
2017-07-29T05:32:21.740Z,3056
2017-07-29T05:32:47.282Z,3800
2017-07-29T05:33:12.917Z,2740
2017-07-29T05:33:38.533Z,2860
2017-07-29T05:34:03.948Z,3464
2017-07-29T05:34:29.669Z,2888
2017-07-29T05:34:55.136Z,2788
2017-07-29T05:35:20.617Z,2740
2017-07-29T05:35:46.044Z,2696
2017-07-29T05:36:11.530Z,2644
2017-07-29T05:36:36.998Z,2572
2017-07-29T05:37:02.468Z,2536
2017-07-29T05:37:27.898Z,2520
2017-07-29T05:37:53.387Z,2556
2017-07-29T05:38:18.825Z,2536
2017-07-29T05:38:44.272Z,2528
2017-07-29T05:39:09.741Z,2472
2017-07-29T05:39:35.250Z,2380
2017-07-29T05:40:00.692Z,2240
2017-07-29T05:40:26.127Z,2096
2017-07-29T05:40:51.569Z,1992
2017-07-29T05:41:17.355Z,1904
2017-07-29T05:41:42.946Z,1868
2017-07-29T05:42:08.891Z,1876
2017-07-29T05:42:34.414Z,1844
2017-07-29T05:43:00.633Z,1728
2017-07-29T05:43:26.386Z,1592
2017-07-29T05:43:52.105Z,1480
2017-07-29T05:44:17.467Z,1476
2017-07-29T05:44:42.898Z,1592
2017-07-29T05:45:08.380Z,1704
2017-07-29T05:45:33.825Z,1760
2017-07-29T05:45:59.256Z,1844
2017-07-29T05:46:24.729Z,1928
2017-07-29T05:46:50.183Z,2104
2017-07-29T05:47:15.713Z,2264
2017-07-29T05:47:41.176Z,2392
2017-07-29T05:48:07.198Z,2280
2017-07-29T05:48:33.009Z,2108
2017-07-29T05:48:58.471Z,1800
2017-07-29T05:49:23.926Z,1488
2017-07-29T05:49:49.350Z,1276
2017-07-29T05:50:14.853Z,1188
2017-07-29T05:50:40.307Z,1200
2017-07-29T05:51:05.816Z,1272
2017-07-29T05:51:31.304Z,1432
2017-07-29T05:51:57.163Z,1668
2017-07-29T05:52:22.618Z,1968
2017-07-29T05:52:48.111Z,1612
2017-07-29T05:53:13.578Z,4748
2017-07-29T05:53:39.028Z,4944
2017-07-29T05:54:04.486Z,5212
2017-07-29T05:54:29.934Z,6168
2017-07-29T05:54:55.361Z,9192
2017-07-29T05:55:20.827Z,8748
2017-07-29T05:55:46.314Z,2416
2017-07-29T05:56:11.785Z,4672
2017-07-29T05:56:37.236Z,10196
2017-07-29T05:57:02.699Z,6844
2017-07-29T05:57:28.118Z,6020
2017-07-29T05:57:53.627Z,20544
2017-07-29T05:58:19.076Z,18752
2017-07-29T05:58:44.561Z,17248
2017-07-29T05:59:09.981Z,16416
2017-07-29T05:59:35.457Z,16928
2017-07-29T06:00:00.927Z,19008
2017-07-29T06:00:26.396Z,21504
2017-07-29T06:00:51.886Z,24544
2017-07-29T06:01:17.359Z,27776
2017-07-29T06:01:42.829Z,30016
2017-07-29T06:02:08.303Z,30976
2017-07-29T06:02:33.809Z,31616
2017-07-29T06:02:59.283Z,30048
2017-07-29T06:03:24.742Z,27296
2017-07-29T06:03:50.204Z,24736
2017-07-29T06:04:15.651Z,21408
2017-07-29T06:04:41.108Z,17664
2017-07-29T06:05:06.549Z,13216
2017-07-29T06:05:32.023Z,10344
2017-07-29T06:05:57.472Z,8652
2017-07-29T06:06:22.933Z,6548
2017-07-29T06:06:48.369Z,6696
2017-07-29T06:07:13.830Z,5628
2017-07-29T06:07:39.259Z,5216
2017-07-29T06:08:04.735Z,5084
2017-07-29T06:08:30.251Z,4604
2017-07-29T06:08:55.683Z,4336
2017-07-29T06:09:21.183Z,4212
2017-07-29T06:09:46.581Z,4660
2017-07-29T06:10:12.068Z,4552
2017-07-29T06:10:37.535Z,4700
2017-07-29T06:11:02.981Z,4344
2017-07-29T06:11:28.490Z,4412
2017-07-29T06:11:53.925Z,4592
2017-07-29T06:12:19.398Z,5932
2017-07-29T06:12:44.932Z,4980
2017-07-29T06:13:10.344Z,4328
2017-07-29T06:13:35.846Z,4028
2017-07-29T06:14:01.298Z,4108
2017-07-29T06:14:26.791Z,4160
2017-07-29T06:14:52.270Z,4464
2017-07-29T06:15:17.696Z,4716
2017-07-29T06:15:43.199Z,4984
2017-07-29T06:16:08.601Z,5160
2017-07-29T06:16:34.070Z,5356
2017-07-29T06:16:59.507Z,5292
2017-07-29T06:17:24.990Z,6880
2017-07-29T06:17:50.456Z,5188
2017-07-29T06:18:15.957Z,6388
2017-07-29T06:18:41.366Z,5048
2017-07-29T06:19:06.814Z,3844
2017-07-29T06:19:32.240Z,3784
2017-07-29T06:19:57.678Z,4584
2017-07-29T06:20:23.139Z,4248
2017-07-29T06:20:48.629Z,4304
2017-07-29T06:21:14.130Z,4384
2017-07-29T06:21:39.588Z,5572
2017-07-29T06:22:05.033Z,5008
2017-07-29T06:22:30.525Z,6548
2017-07-29T06:22:55.972Z,4720
2017-07-29T06:23:21.423Z,4768
2017-07-29T06:23:46.847Z,6304
2017-07-29T06:24:12.293Z,5708
2017-07-29T06:24:37.746Z,5516
2017-07-29T06:25:03.203Z,4768
2017-07-29T06:25:28.688Z,4820
2017-07-29T06:25:54.121Z,4868
2017-07-29T06:26:19.592Z,5160
2017-07-29T06:26:45.007Z,5924
2017-07-29T06:27:10.514Z,6368
2017-07-29T06:27:35.993Z,5524
2017-07-29T06:28:01.474Z,5324
2017-07-29T06:28:26.900Z,5852
2017-07-29T06:28:52.374Z,5080
2017-07-29T06:29:17.792Z,5160
2017-07-29T06:29:43.292Z,5340
2017-07-29T06:30:08.726Z,5236
2017-07-29T06:30:34.188Z,4916
2017-07-29T06:30:59.648Z,4880
2017-07-29T06:31:25.154Z,4772
2017-07-29T06:31:50.679Z,4752
2017-07-29T06:32:16.141Z,5624
2017-07-29T06:32:41.593Z,5532
2017-07-29T06:33:07.050Z,6880
2017-07-29T06:33:32.546Z,5508
2017-07-29T06:33:58.022Z,5748
2017-07-29T06:34:23.506Z,6132
2017-07-29T06:34:48.920Z,6128
2017-07-29T06:35:14.397Z,6076
2017-07-29T06:35:39.839Z,5536
2017-07-29T06:36:05.297Z,4896
2017-07-29T06:36:30.759Z,4548
2017-07-29T06:36:56.222Z,4348
2017-07-29T06:37:21.697Z,4128
2017-07-29T06:37:47.200Z,5620
2017-07-29T06:38:12.623Z,5620
2017-07-29T06:38:38.059Z,5172
2017-07-29T06:39:03.512Z,3408
2017-07-29T06:39:28.964Z,3544
2017-07-29T06:39:54.527Z,3884
2017-07-29T06:40:19.904Z,4332
2017-07-29T06:40:45.331Z,4276
2017-07-29T06:41:10.797Z,4580
2017-07-29T06:41:36.285Z,3612
2017-07-29T06:42:01.725Z,4596
2017-07-29T06:42:27.169Z,2644
2017-07-29T06:42:52.624Z,2532
2017-07-29T06:43:18.114Z,2664
2017-07-29T06:43:43.525Z,2364
2017-07-29T06:44:08.976Z,2304
2017-07-29T06:44:34.427Z,2780
2017-07-29T06:44:59.882Z,2616
2017-07-29T06:45:25.386Z,4896
2017-07-29T06:45:50.833Z,5376
2017-07-29T06:46:16.258Z,5608
2017-07-29T06:46:41.749Z,5796
2017-07-29T06:47:07.195Z,5944
2017-07-29T06:47:32.649Z,6108
2017-07-29T06:47:58.084Z,5800
2017-07-29T06:48:23.569Z,3528
2017-07-29T06:48:49.049Z,3352
2017-07-29T06:49:14.535Z,3500
2017-07-29T06:49:39.960Z,3188
2017-07-29T06:50:05.467Z,3164
2017-07-29T06:50:30.908Z,3464
2017-07-29T06:50:56.362Z,3904
2017-07-29T06:51:21.863Z,4332
2017-07-29T06:51:47.319Z,5356
2017-07-29T06:52:12.739Z,4808
2017-07-29T06:52:38.193Z,4140
2017-07-29T06:53:03.635Z,4088
2017-07-29T06:53:29.129Z,3524
2017-07-29T06:53:54.587Z,2952
2017-07-29T06:54:20.095Z,2744
2017-07-29T06:54:45.495Z,2672
2017-07-29T06:55:10.986Z,2420
2017-07-29T06:55:36.463Z,2116
2017-07-29T06:56:01.895Z,2108
2017-07-29T06:56:27.361Z,4588
2017-07-29T06:56:52.789Z,4876
2017-07-29T06:57:18.297Z,4888
2017-07-29T06:57:43.781Z,4936
2017-07-29T06:58:09.273Z,5008
2017-07-29T06:58:34.696Z,4648
2017-07-29T06:59:00.141Z,4552
2017-07-29T06:59:25.606Z,4932
2017-07-29T06:59:51.117Z,5068
2017-07-29T07:00:16.629Z,5216
2017-07-29T07:00:42.087Z,5200
2017-07-29T07:01:07.643Z,5116
2017-07-29T07:01:33.146Z,4972
2017-07-29T07:01:58.620Z,4860
2017-07-29T07:02:24.121Z,4828
2017-07-29T07:02:49.568Z,4784
2017-07-29T07:03:15.046Z,4804
2017-07-29T07:03:40.518Z,4788
2017-07-29T07:04:05.976Z,4764
2017-07-29T07:04:31.450Z,4764
2017-07-29T07:04:56.908Z,4756
2017-07-29T07:05:22.365Z,4800
2017-07-29T07:05:47.840Z,4924
2017-07-29T07:06:13.315Z,4996
2017-07-29T07:06:38.791Z,5112
2017-07-29T07:07:04.266Z,5304
2017-07-29T07:07:29.726Z,5572
2017-07-29T07:07:55.181Z,5492
2017-07-29T07:08:20.694Z,5508
2017-07-29T07:08:46.139Z,6248
2017-07-29T07:09:11.628Z,7084
2017-07-29T07:09:37.126Z,7312
2017-07-29T07:10:02.606Z,6948
2017-07-29T07:10:28.071Z,6888
2017-07-29T07:10:53.540Z,7432
2017-07-29T07:11:18.984Z,7584
2017-07-29T07:11:44.494Z,7604
2017-07-29T07:12:09.942Z,7536
2017-07-29T07:12:35.459Z,7228
2017-07-29T07:13:00.925Z,6212
2017-07-29T07:13:26.391Z,5516
2017-07-29T07:13:51.868Z,6504
2017-07-29T07:14:17.341Z,6368
2017-07-29T07:14:42.785Z,5604
2017-07-29T07:15:08.264Z,5580
2017-07-29T07:15:33.722Z,7756
2017-07-29T07:15:59.213Z,9368
2017-07-29T07:16:24.676Z,8652
2017-07-29T07:16:50.158Z,6776
2017-07-29T07:17:15.663Z,6680
2017-07-29T07:17:41.137Z,7192
2017-07-29T07:18:06.612Z,7656
2017-07-29T07:18:32.099Z,8272
2017-07-29T07:18:57.547Z,8212
2017-07-29T07:19:23.032Z,7600
2017-07-29T07:19:48.545Z,7024
2017-07-29T07:20:13.999Z,6748
2017-07-29T07:20:39.433Z,6940
2017-07-29T07:21:04.928Z,6788
2017-07-29T07:21:30.427Z,6608
2017-07-29T07:21:55.894Z,6616
2017-07-29T07:22:21.365Z,6636
2017-07-29T07:22:46.834Z,6656
2017-07-29T07:23:12.299Z,6488
2017-07-29T07:23:37.779Z,6424
2017-07-29T07:24:03.225Z,6376
2017-07-29T07:24:28.692Z,5832
2017-07-29T07:24:54.153Z,5372
2017-07-29T07:25:19.590Z,5212
2017-07-29T07:26:43.564Z,3872
2017-07-29T07:27:09.046Z,3788
2017-07-29T07:27:34.525Z,3612
2017-07-29T07:27:59.989Z,3728
2017-07-29T07:28:25.441Z,4320
2017-07-29T07:28:50.909Z,5036
2017-07-29T07:29:16.381Z,5484
2017-07-29T07:29:41.872Z,5868
2017-07-29T07:30:07.403Z,5924
2017-07-29T07:30:32.838Z,5768
2017-07-29T07:30:58.307Z,5412
2017-07-29T07:31:23.766Z,4980
2017-07-29T07:32:47.759Z,4240
2017-07-29T07:33:13.202Z,4324
2017-07-29T07:33:38.698Z,4568
2017-07-29T07:34:04.152Z,4648
2017-07-29T07:34:29.623Z,4860
2017-07-29T07:34:55.136Z,4720
2017-07-29T07:35:20.612Z,4176
2017-07-29T07:35:46.066Z,3556
2017-07-29T07:36:11.533Z,3380
2017-07-29T07:36:36.963Z,3628
2017-07-29T07:37:02.440Z,3928
2017-07-29T07:37:27.901Z,3956
2017-07-29T07:37:53.390Z,4288
2017-07-29T07:38:18.903Z,4668
2017-07-29T07:38:44.359Z,5844
2017-07-29T07:39:09.915Z,6500
2017-07-29T07:39:35.391Z,6288
2017-07-29T07:40:00.878Z,6704
2017-07-29T07:40:26.358Z,7000
2017-07-29T07:40:51.803Z,7408
2017-07-29T07:41:17.275Z,7512
2017-07-29T07:41:42.712Z,6972
2017-07-29T07:42:08.166Z,5756
2017-07-29T07:42:33.637Z,4976
2017-07-29T07:42:59.082Z,4896
2017-07-29T07:43:24.529Z,5548
2017-07-29T07:43:49.998Z,7620
2017-07-29T07:44:15.454Z,8720
2017-07-29T07:44:40.904Z,7956
2017-07-29T07:45:06.404Z,7232
2017-07-29T07:45:31.862Z,7032
2017-07-29T07:45:57.312Z,7388
2017-07-29T07:46:22.760Z,7580
2017-07-29T07:46:48.252Z,7668
2017-07-29T07:47:13.706Z,7564
2017-07-29T07:47:39.172Z,7928
2017-07-29T07:48:04.641Z,8080
2017-07-29T07:48:30.114Z,7652
2017-07-29T07:48:55.591Z,6676
2017-07-29T07:49:21.052Z,5412
2017-07-29T07:49:46.508Z,4720
2017-07-29T07:50:11.994Z,4764
2017-07-29T07:50:37.452Z,4624
2017-07-29T07:51:02.932Z,4716
2017-07-29T07:51:28.402Z,4932
2017-07-29T07:51:53.903Z,4640
2017-07-29T07:52:19.422Z,4348
2017-07-29T07:52:44.931Z,4416
2017-07-29T07:53:10.369Z,5076
2017-07-29T07:53:35.854Z,6192
2017-07-29T07:54:01.327Z,6560
2017-07-29T07:54:26.755Z,5712
2017-07-29T07:54:52.216Z,5240
2017-07-29T07:55:17.720Z,5564
2017-07-29T07:55:43.242Z,5828
2017-07-29T07:56:08.705Z,6488
2017-07-29T07:56:34.201Z,7508
2017-07-29T07:56:59.655Z,7208
2017-07-29T07:57:25.159Z,5864
2017-07-29T07:57:50.608Z,4684
2017-07-29T07:58:16.074Z,3684
2017-07-29T07:58:41.590Z,3292
2017-07-29T07:59:07.096Z,3160
2017-07-29T07:59:32.603Z,3080
2017-07-29T07:59:58.059Z,3300
2017-07-29T08:00:23.522Z,3704
2017-07-29T08:00:49.029Z,3880
2017-07-29T08:01:14.458Z,3948
2017-07-29T08:01:39.925Z,3852
2017-07-29T08:02:05.411Z,4508
2017-07-29T08:02:30.855Z,5372
2017-07-29T08:02:56.314Z,5884
2017-07-29T08:03:21.804Z,5580
2017-07-29T08:03:47.293Z,4652
2017-07-29T08:04:12.780Z,4096
2017-07-29T08:04:38.245Z,4164
2017-07-29T08:05:03.739Z,4360
2017-07-29T08:05:29.208Z,4572
2017-07-29T08:05:54.683Z,4792
2017-07-29T08:06:20.183Z,4332
2017-07-29T08:06:45.609Z,3912
2017-07-29T08:07:11.059Z,3800
2017-07-29T08:07:36.551Z,3904
2017-07-29T08:08:02.036Z,4136
2017-07-29T08:08:27.494Z,5028
2017-07-29T08:08:52.963Z,4844
2017-07-29T08:09:18.433Z,4468
2017-07-29T08:09:43.904Z,4680
2017-07-29T08:10:09.406Z,5180
2017-07-29T08:10:34.879Z,5780
2017-07-29T08:11:00.348Z,7020
2017-07-29T08:11:25.852Z,8060
2017-07-29T08:11:51.339Z,8936
2017-07-29T08:12:16.889Z,8024
2017-07-29T08:12:42.386Z,7016
2017-07-29T08:13:07.902Z,7376
2017-07-29T08:13:33.396Z,8712
2017-07-29T08:13:58.875Z,9112
2017-07-29T08:14:24.391Z,8744
2017-07-29T08:14:49.808Z,9344
2017-07-29T08:15:15.327Z,10260
2017-07-29T08:15:40.821Z,9452
2017-07-29T08:16:06.301Z,8900
2017-07-29T08:16:31.808Z,8984
2017-07-29T08:16:57.279Z,8900
2017-07-29T08:17:22.749Z,8356
2017-07-29T08:17:48.208Z,8084
2017-07-29T08:18:13.689Z,7500
2017-07-29T08:18:39.168Z,6552
2017-07-29T08:19:04.603Z,5496
2017-07-29T08:19:30.143Z,5340
2017-07-29T08:19:55.594Z,4756
2017-07-29T08:20:21.051Z,4288
2017-07-29T08:20:46.578Z,5072
2017-07-29T08:21:12.019Z,6056
2017-07-29T08:21:37.491Z,6512
2017-07-29T08:22:02.946Z,6628
2017-07-29T08:22:28.421Z,7032
2017-07-29T08:22:53.875Z,7408
2017-07-29T08:23:19.398Z,7880
2017-07-29T08:23:44.873Z,7516
2017-07-29T08:24:10.360Z,7000
2017-07-29T08:24:35.829Z,6632
2017-07-29T08:25:01.321Z,6468
2017-07-29T08:25:26.799Z,6476
2017-07-29T08:25:52.230Z,6448
2017-07-29T08:26:17.696Z,6392
2017-07-29T08:26:43.166Z,5816
2017-07-29T08:27:08.655Z,5376
2017-07-29T08:27:34.149Z,4796
2017-07-29T08:27:59.644Z,4528
2017-07-29T08:28:25.162Z,4832
2017-07-29T08:28:50.603Z,5244
2017-07-29T08:29:16.072Z,4724
2017-07-29T08:29:41.533Z,5016
2017-07-29T08:30:07.007Z,5216
2017-07-29T08:30:32.499Z,6028
2017-07-29T08:30:57.942Z,7484
2017-07-29T08:31:23.419Z,8032
2017-07-29T08:31:48.922Z,8532
2017-07-29T08:32:14.400Z,9452
2017-07-29T08:32:39.882Z,10580
2017-07-29T08:33:05.311Z,12796
2017-07-29T08:33:30.770Z,11576
2017-07-29T08:33:56.251Z,9600
2017-07-29T08:34:21.740Z,9948
2017-07-29T08:34:47.263Z,10620
2017-07-29T08:35:12.735Z,9688
2017-07-29T08:35:38.229Z,8588
2017-07-29T08:36:03.665Z,7340
2017-07-29T08:36:29.149Z,5620
2017-07-29T08:36:54.644Z,4748
2017-07-29T08:37:20.146Z,5080
2017-07-29T08:37:45.565Z,4772
2017-07-29T08:38:11.026Z,4752
2017-07-29T08:38:36.483Z,5304
2017-07-29T08:39:01.960Z,8184
2017-07-29T08:40:10.647Z,8176
2017-07-29T08:40:36.120Z,8712
2017-07-29T08:41:01.591Z,8920
2017-07-29T08:41:27.111Z,8956
2017-07-29T08:41:52.572Z,8416
2017-07-29T08:43:01.251Z,10156
2017-07-29T08:43:26.697Z,10568
2017-07-29T08:43:52.178Z,10696
2017-07-29T08:44:17.649Z,10028
2017-07-29T08:44:43.114Z,8504
2017-07-29T08:45:08.574Z,6924
2017-07-29T08:45:34.052Z,6368
2017-07-29T08:45:59.559Z,6048
2017-07-29T08:46:25.022Z,5252
2017-07-29T08:46:50.465Z,4968
2017-07-29T08:47:15.952Z,5144
2017-07-29T08:47:41.452Z,4832
2017-07-29T08:48:06.971Z,3788
2017-07-29T08:48:32.465Z,3140
2017-07-29T08:48:57.933Z,3972
2017-07-29T08:49:23.430Z,5772
2017-07-29T08:49:48.867Z,7312
2017-07-29T08:50:14.299Z,6840
2017-07-29T08:50:39.749Z,5872
2017-07-29T08:51:05.226Z,6024
2017-07-29T08:51:30.688Z,5192
2017-07-29T08:51:56.181Z,4276
2017-07-29T08:52:21.646Z,3964
2017-07-29T08:52:47.113Z,4764
2017-07-29T08:53:12.574Z,6560
2017-07-29T08:53:38.053Z,7876
2017-07-29T08:54:03.505Z,8000
2017-07-29T08:54:28.960Z,7520
2017-07-29T08:54:54.434Z,7192
2017-07-29T08:55:19.908Z,6252
2017-07-29T08:55:45.360Z,5024
2017-07-29T08:56:10.877Z,4656
2017-07-29T08:56:36.380Z,5412
2017-07-29T08:57:01.868Z,6384
2017-07-29T08:57:27.329Z,6852
2017-07-29T08:57:52.777Z,7184
2017-07-29T08:58:18.232Z,7728
2017-07-29T08:58:43.730Z,7904
2017-07-29T08:59:09.203Z,6940
2017-07-29T08:59:34.677Z,7164
2017-07-29T09:00:00.172Z,7852
2017-07-29T09:00:25.638Z,7624
2017-07-29T09:00:51.107Z,7320
2017-07-29T09:01:16.608Z,7964
2017-07-29T09:01:42.122Z,8744
2017-07-29T09:02:07.564Z,9224
2017-07-29T09:02:33.065Z,10040
2017-07-29T09:02:58.573Z,10600
2017-07-29T09:03:24.029Z,10112
2017-07-29T09:03:49.509Z,9924
2017-07-29T09:04:14.984Z,9660
2017-07-29T09:04:40.451Z,10368
2017-07-29T09:05:05.981Z,11200
2017-07-29T09:05:31.475Z,11188
2017-07-29T09:05:56.928Z,10504
2017-07-29T09:06:22.386Z,10380
2017-07-29T09:06:47.866Z,10448
2017-07-29T09:07:13.381Z,10328
2017-07-29T09:07:38.914Z,9608
2017-07-29T09:08:04.362Z,9280
2017-07-29T09:08:29.827Z,8752
2017-07-29T09:08:55.326Z,8728
2017-07-29T09:09:20.830Z,8548
2017-07-29T09:09:46.279Z,8552
2017-07-29T09:10:11.709Z,9192
2017-07-29T09:10:37.186Z,10112
2017-07-29T09:11:02.686Z,10292
2017-07-29T09:11:28.172Z,10264
2017-07-29T09:11:53.654Z,9836
2017-07-29T09:12:19.109Z,8940
2017-07-29T09:12:44.558Z,7960
2017-07-29T09:13:10.041Z,8160
2017-07-29T09:13:35.489Z,8548
2017-07-29T09:14:01.009Z,9116
2017-07-29T09:14:26.474Z,9568
2017-07-29T09:14:51.952Z,9600
2017-07-29T09:15:17.402Z,10004
2017-07-29T09:15:42.896Z,10148
2017-07-29T09:16:08.340Z,9504
2017-07-29T09:16:33.836Z,9000
2017-07-29T09:16:59.322Z,9024
2017-07-29T09:17:24.862Z,10036
2017-07-29T09:17:50.321Z,10636
2017-07-29T09:18:15.850Z,11204
2017-07-29T09:18:41.308Z,11292
2017-07-29T09:19:06.757Z,11452
2017-07-29T09:19:32.301Z,11484
2017-07-29T09:19:57.765Z,11440
2017-07-29T09:20:23.248Z,11684
2017-07-29T09:20:48.708Z,11460
2017-07-29T09:21:14.226Z,9936
2017-07-29T09:21:39.682Z,7536
2017-07-29T09:22:05.171Z,6612
2017-07-29T09:22:30.691Z,7120
2017-07-29T09:22:56.146Z,6476
2017-07-29T09:23:21.641Z,5184
2017-07-29T09:23:47.111Z,5104
2017-07-29T09:24:12.605Z,5184
2017-07-29T09:24:38.070Z,5448
2017-07-29T09:25:03.544Z,6908
2017-07-29T09:25:29.039Z,8168
2017-07-29T09:25:54.499Z,9020
2017-07-29T09:26:19.972Z,9044
2017-07-29T09:26:45.473Z,8896
2017-07-29T09:27:10.985Z,9068
2017-07-29T09:27:36.455Z,9200
2017-07-29T09:28:01.924Z,9124
2017-07-29T09:28:27.390Z,9004
2017-07-29T09:28:52.895Z,8084
2017-07-29T09:29:18.389Z,6800
2017-07-29T09:29:43.881Z,6568
2017-07-29T09:30:09.341Z,6796
2017-07-29T09:30:34.858Z,7552
2017-07-29T09:31:00.344Z,8232
2017-07-29T09:31:25.848Z,8880
2017-07-29T09:31:51.326Z,9424
2017-07-29T09:32:16.739Z,9868
2017-07-29T09:32:42.196Z,9952
2017-07-29T09:33:07.705Z,9540
2017-07-29T09:33:33.236Z,9504
2017-07-29T09:33:58.723Z,9660
2017-07-29T09:34:24.208Z,9576
2017-07-29T09:34:49.700Z,9292
2017-07-29T09:35:15.204Z,8904
2017-07-29T09:35:40.643Z,8236
2017-07-29T09:36:06.101Z,8920
2017-07-29T09:36:31.571Z,9356
2017-07-29T09:36:57.131Z,7800
2017-07-29T09:38:10.942Z,7916
2017-07-29T09:38:36.418Z,9056
2017-07-29T09:39:01.883Z,9428
2017-07-29T09:39:27.358Z,8748
2017-07-29T09:39:52.880Z,8648
2017-07-29T09:40:18.348Z,8496
2017-07-29T09:40:43.779Z,8296
2017-07-29T09:41:09.254Z,8360
2017-07-29T09:41:34.717Z,8356
2017-07-29T09:42:00.223Z,8804
2017-07-29T09:42:25.712Z,8156
2017-07-29T09:42:51.155Z,7096
2017-07-29T09:43:16.613Z,7628
2017-07-29T09:43:42.087Z,7836
2017-07-29T09:44:07.567Z,8260
2017-07-29T09:44:33.027Z,9392
2017-07-29T09:44:58.470Z,10244
2017-07-29T09:45:23.956Z,10128
2017-07-29T09:45:49.434Z,8096
2017-07-29T09:46:14.889Z,5956
2017-07-29T09:46:40.396Z,5252
2017-07-29T09:47:05.859Z,5492
2017-07-29T09:47:31.328Z,5060
2017-07-29T09:47:56.794Z,4512
2017-07-29T09:48:22.291Z,5012
2017-07-29T09:48:47.788Z,5972
2017-07-29T09:49:13.273Z,6824
2017-07-29T09:49:38.750Z,7616
2017-07-29T09:50:04.226Z,7660
2017-07-29T09:50:29.703Z,8868
2017-07-29T09:50:55.192Z,9648
2017-07-29T09:51:20.666Z,9736
2017-07-29T09:51:46.183Z,8084
2017-07-29T09:52:11.654Z,5824
2017-07-29T09:52:37.132Z,6488
2017-07-29T09:53:02.575Z,8548
2017-07-29T09:53:28.073Z,9272
2017-07-29T09:53:53.555Z,9456
2017-07-29T09:54:19.067Z,7860
2017-07-29T09:54:44.545Z,7168
2017-07-29T09:55:10.044Z,6160
2017-07-29T09:55:35.536Z,5244
2017-07-29T09:56:00.954Z,5340
2017-07-29T09:56:26.439Z,5596
2017-07-29T09:56:51.896Z,5292
2017-07-29T09:57:17.396Z,5248
2017-07-29T09:57:42.886Z,4696
2017-07-29T09:58:08.368Z,3964
2017-07-29T09:58:33.864Z,3856
2017-07-29T09:58:59.349Z,4088
2017-07-29T09:59:24.814Z,3900
2017-07-29T09:59:50.321Z,3712
2017-07-29T10:00:15.826Z,3596
2017-07-29T10:00:41.318Z,3348
2017-07-29T10:01:06.905Z,3548
2017-07-29T10:01:32.326Z,4792
2017-07-29T10:01:57.786Z,6000
2017-07-29T10:02:23.283Z,6592
2017-07-29T10:02:48.789Z,6544
2017-07-29T10:03:14.234Z,6048
2017-07-29T10:03:39.764Z,5532
2017-07-29T10:04:05.183Z,5476
2017-07-29T10:04:30.707Z,5088
2017-07-29T10:04:56.157Z,4632
2017-07-29T10:05:21.648Z,4744
2017-07-29T10:05:47.147Z,5756
2017-07-29T10:06:12.647Z,6664
2017-07-29T10:06:38.141Z,6796
2017-07-29T10:07:03.644Z,7952
2017-07-29T10:07:29.150Z,10016
2017-07-29T10:08:42.949Z,11740
2017-07-29T10:09:08.416Z,11680
2017-07-29T10:09:33.865Z,11596
2017-07-29T10:09:59.360Z,11360
2017-07-29T10:10:24.850Z,11288
2017-07-29T10:10:50.363Z,11144
2017-07-29T10:11:15.830Z,10776
2017-07-29T10:11:41.300Z,10832
2017-07-29T10:13:05.310Z,12752
2017-07-29T10:13:30.794Z,12868
2017-07-29T10:13:56.270Z,12592
2017-07-29T10:14:21.751Z,12432
2017-07-29T10:14:47.227Z,12104
2017-07-29T10:15:12.736Z,12096
2017-07-29T10:15:38.195Z,12192
2017-07-29T10:16:03.679Z,12272
2017-07-29T10:16:29.151Z,11892
2017-07-29T10:16:54.702Z,11464
2017-07-29T10:17:20.147Z,11736
2017-07-29T10:17:45.647Z,11728
2017-07-29T10:18:11.116Z,11484
2017-07-29T10:18:36.604Z,11520
2017-07-29T10:19:02.097Z,11268
2017-07-29T10:19:27.606Z,10904
2017-07-29T10:19:53.049Z,10752
2017-07-29T10:20:18.494Z,10492
2017-07-29T10:20:43.971Z,10204
2017-07-29T10:21:09.462Z,9952
2017-07-29T10:21:34.940Z,9556
2017-07-29T10:22:00.474Z,9528
2017-07-29T10:22:25.943Z,8496
2017-07-29T10:22:51.437Z,7704
2017-07-29T10:23:16.960Z,8560
2017-07-29T10:23:42.376Z,7648
2017-07-29T10:24:07.857Z,6208
2017-07-29T10:24:33.302Z,5704
2017-07-29T10:24:58.778Z,6484
2017-07-29T10:25:24.262Z,8052
2017-07-29T10:25:49.727Z,8900
2017-07-29T10:26:15.190Z,8352
2017-07-29T10:26:40.657Z,7992
2017-07-29T10:27:06.138Z,8688
2017-07-29T10:27:31.628Z,8572
2017-07-29T10:27:57.106Z,8364
2017-07-29T10:28:22.570Z,8312
2017-07-29T10:28:48.047Z,7976
2017-07-29T10:29:13.511Z,7436
2017-07-29T10:29:38.975Z,6864
2017-07-29T10:30:04.452Z,6192
2017-07-29T10:30:29.980Z,6564
2017-07-29T10:30:55.480Z,7588
2017-07-29T10:31:20.919Z,7452
2017-07-29T10:31:46.392Z,7368
2017-07-29T10:32:11.912Z,8688
2017-07-29T10:32:37.375Z,9928
2017-07-29T10:33:02.855Z,10284
2017-07-29T10:33:28.306Z,11160
2017-07-29T10:33:53.823Z,11528
2017-07-29T10:34:19.268Z,11176
2017-07-29T10:34:44.747Z,10916
2017-07-29T10:35:10.211Z,10520
2017-07-29T10:35:35.685Z,9264
2017-07-29T10:36:01.216Z,7700
2017-07-29T10:36:26.771Z,6796
2017-07-29T10:36:52.188Z,7484
2017-07-29T10:37:17.668Z,7800
2017-07-29T10:37:43.168Z,7312
2017-07-29T10:38:08.663Z,7020
2017-07-29T10:38:34.077Z,7028
2017-07-29T10:38:59.561Z,7268
2017-07-29T10:39:25.082Z,7824
2017-07-29T10:39:50.597Z,7480
2017-07-29T10:40:16.087Z,6244
2017-07-29T10:40:41.602Z,5120
2017-07-29T10:41:07.111Z,5240
2017-07-29T10:41:32.621Z,5548
2017-07-29T10:41:58.124Z,5072
2017-07-29T10:42:23.635Z,4788
2017-07-29T10:42:49.093Z,5444
2017-07-29T10:43:14.553Z,6944
2017-07-29T10:43:40.039Z,8880
2017-07-29T10:44:05.526Z,10112
2017-07-29T10:44:31.008Z,10316
2017-07-29T10:44:56.480Z,10316
2017-07-29T10:45:22.029Z,9812
2017-07-29T10:45:47.506Z,9080
2017-07-29T10:46:13.028Z,8208
2017-07-29T10:46:38.476Z,7184
2017-07-29T10:47:03.951Z,5924
2017-07-29T10:47:29.443Z,4916
2017-07-29T10:47:54.986Z,4344
2017-07-29T10:48:20.548Z,4008
2017-07-29T10:48:46.000Z,3676
2017-07-29T10:49:11.493Z,3388
2017-07-29T10:49:37.004Z,3744
2017-07-29T10:50:02.490Z,4440
2017-07-29T10:50:27.972Z,5044
2017-07-29T10:50:53.490Z,4728
2017-07-29T10:51:18.911Z,4268
2017-07-29T10:51:44.383Z,4188
2017-07-29T10:52:09.884Z,4120
2017-07-29T10:52:35.343Z,4056
2017-07-29T10:53:00.788Z,4292
2017-07-29T10:53:26.259Z,5636
2017-07-29T10:53:51.731Z,7424
2017-07-29T10:54:17.198Z,8680
2017-07-29T10:54:42.671Z,9184
2017-07-29T10:55:08.172Z,9452
2017-07-29T10:55:33.613Z,9352
2017-07-29T10:55:59.114Z,9456
2017-07-29T10:56:24.545Z,8524
2017-07-29T10:56:50.073Z,6832
2017-07-29T10:57:15.565Z,6324
2017-07-29T10:57:41.014Z,6592
2017-07-29T10:58:06.509Z,6708
2017-07-29T10:58:31.966Z,6496
2017-07-29T10:58:57.431Z,6520
2017-07-29T10:59:22.871Z,6308
2017-07-29T10:59:48.399Z,5676
2017-07-29T11:00:13.856Z,5056
2017-07-29T11:00:39.326Z,4472
2017-07-29T11:01:04.791Z,4172
2017-07-29T11:01:30.331Z,4196
2017-07-29T11:01:55.805Z,4064
2017-07-29T11:02:21.303Z,4036
2017-07-29T11:02:46.787Z,4736
2017-07-29T11:03:12.328Z,5496
2017-07-29T11:03:37.806Z,5292
2017-07-29T11:04:03.310Z,4420
2017-07-29T11:04:28.805Z,3916
2017-07-29T11:04:54.230Z,4040
2017-07-29T11:05:19.688Z,3820
2017-07-29T11:05:45.199Z,2808
2017-07-29T11:06:10.677Z,2216
2017-07-29T11:06:36.178Z,3364
2017-07-29T11:07:01.657Z,5668
2017-07-29T11:07:27.096Z,7100
2017-07-29T11:07:52.579Z,7220
2017-07-29T11:08:18.086Z,7372
2017-07-29T11:08:43.578Z,8364
2017-07-29T11:09:09.053Z,8628
2017-07-29T11:09:34.482Z,8000
2017-07-29T11:09:59.963Z,6700
2017-07-29T11:10:25.472Z,5248
2017-07-29T11:10:50.943Z,4420
2017-07-29T11:11:16.464Z,4428
2017-07-29T11:11:41.930Z,4288
2017-07-29T11:12:07.418Z,4204
2017-07-29T11:12:32.873Z,5092
2017-07-29T11:12:58.376Z,6060
2017-07-29T11:13:23.830Z,6988
2017-07-29T11:13:49.296Z,8020
2017-07-29T11:14:14.788Z,8640
2017-07-29T11:14:40.282Z,8464
2017-07-29T11:15:05.721Z,8916